createdAt,value
2022-11-27T00:01:28.627Z,100.00
2022-11-27T00:03:56.490Z,100.00
2022-11-27T00:06:26.195Z,100.00
2022-11-27T00:08:54.973Z,100.00
2022-11-27T00:11:23.665Z,100.00
2022-11-27T00:13:52.151Z,100.00
2022-11-27T00:26:06.794Z,100.00
2022-11-27T00:28:38.755Z,100.00
2022-11-27T00:31:12.627Z,100.00
2022-11-27T00:33:39.519Z,100.00
2022-11-27T00:36:07.884Z,100.00
2022-11-27T00:38:38.734Z,100.00
2022-11-27T00:41:26.686Z,100.00
2022-11-27T00:43:54.316Z,100.00
2022-11-27T00:46:28.801Z,100.00
2022-11-27T00:49:05.082Z,100.00
2022-11-27T00:51:35.118Z,100.00
2022-11-27T00:54:02.665Z,100.00
2022-11-27T00:56:37.464Z,100.00
2022-11-27T00:59:06.086Z,100.00
2022-11-27T01:01:43.697Z,100.00
2022-11-27T01:04:14.343Z,100.00
2022-11-27T01:06:42.106Z,100.00
2022-11-27T01:09:11.349Z,100.00
2022-11-27T01:11:42.297Z,100.00
2022-11-27T01:14:14.055Z,100.00
2022-11-27T01:16:43.075Z,100.00
2022-11-27T01:19:14.383Z,100.00
2022-11-27T01:21:42.902Z,100.00
2022-11-27T01:24:18.247Z,100.00
2022-11-27T01:26:45.330Z,100.00
2022-11-27T01:29:12.186Z,100.00
2022-11-27T01:31:42.222Z,100.00
2022-11-27T01:34:15.954Z,100.00
2022-11-27T01:36:42.968Z,100.00
2022-11-27T01:39:15.287Z,100.00
2022-11-27T01:41:43.839Z,100.00
2022-11-27T01:44:22.659Z,100.00
2022-11-27T01:47:03.080Z,100.00
2022-11-27T01:49:51.349Z,100.00
2022-11-27T01:52:26.098Z,100.00
2022-11-27T01:55:02.797Z,100.00
2022-11-27T01:57:38.437Z,100.00
2022-11-27T02:00:07.273Z,100.00
2022-11-27T02:02:40.502Z,100.00
2022-11-27T02:05:08.581Z,100.00
2022-11-27T02:07:35.570Z,100.00
2022-11-27T02:10:04.196Z,100.00
2022-11-27T02:12:54.348Z,100.00
2022-11-27T02:15:34.885Z,100.00
2022-11-27T02:18:07.199Z,100.00
2022-11-27T02:20:39.758Z,100.00
2022-11-27T02:23:25.362Z,100.00
2022-11-27T02:26:25.580Z,100.00
2022-11-27T02:29:07.535Z,100.00
2022-11-27T02:31:38.314Z,100.00
2022-11-27T02:34:42.918Z,100.00
2022-11-27T02:37:47.520Z,100.00
2022-11-27T02:40:29.630Z,100.00
2022-11-27T02:43:02.906Z,100.00
2022-11-27T02:45:50.963Z,100.00
2022-11-27T02:48:25.808Z,100.00
2022-11-27T02:50:53.671Z,100.00
2022-11-27T02:53:25.729Z,100.00
2022-11-27T02:55:55.034Z,100.00
2022-11-27T02:58:25.966Z,100.00
2022-11-27T03:00:55.200Z,100.00
2022-11-27T03:03:27.981Z,100.00
2022-11-27T03:06:01.445Z,100.00
2022-11-27T03:08:31.705Z,100.00
2022-11-27T03:11:07.885Z,100.00
2022-11-27T03:13:46.851Z,100.00
2022-11-27T03:16:22.687Z,100.00
2022-11-27T03:19:14.273Z,100.00
2022-11-27T03:21:44.570Z,100.00
2022-11-27T03:24:11.992Z,100.00
2022-11-27T03:26:39.890Z,100.00
2022-11-27T03:29:22.683Z,100.00
2022-11-27T03:31:49.526Z,100.00
2022-11-27T03:34:19.297Z,100.00
2022-11-27T03:36:46.038Z,100.00
2022-11-27T03:39:13.737Z,100.00
2022-11-27T03:41:54.124Z,100.00
2022-11-27T03:44:49.816Z,100.00
2022-11-27T03:47:51.026Z,100.00
2022-11-27T03:50:32.150Z,100.00
2022-11-27T03:53:17.309Z,100.00
2022-11-27T03:56:08.404Z,100.00
2022-11-27T03:58:54.625Z,100.00
2022-11-27T04:01:25.752Z,100.00
2022-11-27T04:03:53.105Z,100.00
2022-11-27T04:06:19.750Z,100.00
2022-11-27T04:08:47.220Z,100.00
2022-11-27T04:11:14.822Z,100.00
2022-11-27T04:13:41.570Z,100.00
2022-11-27T04:16:08.515Z,100.00
2022-11-27T04:18:35.232Z,100.00
2022-11-27T04:21:03.638Z,100.00
2022-11-27T04:23:30.324Z,100.00
2022-11-27T04:25:56.893Z,100.00
2022-11-27T04:28:23.560Z,100.00
2022-11-27T04:30:52.647Z,100.00
2022-11-27T04:33:19.305Z,100.00
2022-11-27T04:35:45.815Z,100.00
2022-11-27T04:38:12.441Z,100.00
2022-11-27T04:40:39.342Z,100.00
2022-11-27T04:43:06.135Z,100.00
2022-11-27T04:45:32.802Z,100.00
2022-11-27T04:48:07.385Z,100.00
2022-11-27T04:50:38.057Z,100.00
2022-11-27T04:53:04.719Z,100.00
2022-11-27T04:55:31.416Z,100.00
2022-11-27T04:57:58.048Z,100.00
2022-11-27T05:00:24.658Z,100.00
2022-11-27T05:03:01.861Z,100.00
2022-11-27T05:05:29.045Z,100.00
2022-11-27T05:07:56.195Z,100.00
2022-11-27T05:10:22.983Z,100.00
2022-11-27T05:12:49.663Z,100.00
2022-11-27T05:15:16.318Z,100.00
2022-11-27T05:17:42.839Z,100.00
2022-11-27T05:20:09.971Z,100.00
2022-11-27T05:22:36.853Z,100.00
2022-11-27T05:25:03.890Z,100.00
2022-11-27T05:27:30.519Z,100.00
2022-11-27T05:29:57.394Z,100.00
2022-11-27T05:32:24.485Z,100.00
2022-11-27T05:34:51.338Z,100.00
2022-11-27T05:37:19.780Z,100.00
2022-11-27T05:39:46.825Z,100.00
2022-11-27T05:42:24.947Z,100.00
2022-11-27T05:44:58.095Z,100.00
2022-11-27T05:50:34.272Z,100.00
2022-11-27T05:53:00.967Z,100.00
2022-11-27T05:55:31.473Z,100.00
2022-11-27T05:57:58.106Z,100.00
2022-11-27T06:00:26.432Z,100.00
2022-11-27T06:02:53.206Z,100.00
2022-11-27T06:05:20.433Z,100.00
2022-11-27T06:07:47.584Z,100.00
2022-11-27T06:10:14.759Z,100.00
2022-11-27T06:12:43.655Z,100.00
2022-11-27T06:17:59.457Z,100.00
2022-11-27T06:20:26.111Z,100.00
2022-11-27T06:22:52.889Z,100.00
2022-11-27T06:25:19.698Z,100.00
2022-11-27T06:27:46.312Z,100.00
2022-11-27T06:30:13.330Z,100.00
2022-11-27T06:32:40.076Z,100.00
2022-11-27T06:35:07.659Z,100.00
2022-11-27T06:37:36.773Z,100.00
2022-11-27T06:40:06.594Z,100.00
2022-11-27T06:42:33.428Z,100.00
2022-11-27T06:45:02.923Z,100.00
2022-11-27T06:47:29.819Z,100.00
2022-11-27T06:49:56.547Z,100.00
2022-11-27T06:52:23.173Z,100.00
2022-11-27T06:54:50.823Z,100.00
2022-11-27T06:57:17.806Z,100.00
2022-11-27T06:59:45.371Z,100.00
2022-11-27T07:02:17.939Z,100.00
2022-11-27T07:04:47.825Z,100.00
2022-11-27T07:07:15.901Z,100.00
2022-11-27T07:09:42.898Z,100.00
2022-11-27T07:12:10.724Z,100.00
2022-11-27T07:14:40.241Z,100.00
2022-11-27T07:17:10.187Z,100.00
2022-11-27T07:19:53.338Z,100.00
2022-11-27T07:22:21.167Z,100.00
2022-11-27T07:24:48.077Z,100.00
2022-11-27T07:27:19.856Z,100.00
2022-11-27T07:29:52.028Z,100.00
2022-11-27T07:32:19.177Z,100.00
2022-11-27T07:34:48.502Z,100.00
2022-11-27T07:37:15.212Z,100.00
2022-11-27T07:40:02.022Z,100.00
2022-11-27T07:42:40.417Z,100.00
2022-11-27T07:45:08.593Z,100.00
2022-11-27T07:47:38.090Z,100.00
2022-11-27T07:50:07.847Z,100.00
2022-11-27T07:52:42.065Z,100.00
2022-11-27T07:55:22.735Z,100.00
2022-11-27T07:57:52.725Z,100.00
2022-11-27T08:00:20.395Z,100.00
2022-11-27T08:02:47.547Z,100.00
2022-11-27T08:05:15.669Z,100.00
2022-11-27T08:07:47.164Z,100.00
2022-11-27T08:10:14.129Z,100.00
2022-11-27T08:12:41.040Z,100.00
2022-11-27T08:15:08.637Z,100.00
2022-11-27T08:17:39.350Z,100.00
2022-11-27T08:20:08.972Z,100.00
2022-11-27T08:22:39.704Z,99.97
2022-11-27T08:25:09.089Z,99.70
2022-11-27T08:27:38.169Z,98.97
2022-11-27T08:30:05.975Z,99.24
2022-11-27T08:32:33.010Z,99.38
2022-11-27T08:35:05.172Z,99.27
2022-11-27T08:37:34.671Z,99.41
2022-11-27T08:40:01.751Z,99.49
2022-11-27T08:42:29.536Z,99.77
2022-11-27T08:44:56.322Z,99.64
2022-11-27T08:47:26.283Z,99.68
2022-11-27T08:49:53.186Z,99.97
2022-11-27T08:52:22.258Z,99.76
2022-11-27T08:54:57.780Z,99.88
2022-11-27T08:57:25.396Z,99.79
2022-11-27T09:00:00.730Z,99.43
2022-11-27T09:02:32.152Z,98.71
2022-11-27T09:05:02.227Z,98.35
2022-11-27T09:07:28.998Z,98.04
2022-11-27T09:09:55.889Z,98.16
2022-11-27T09:12:22.698Z,97.50
2022-11-27T09:14:49.518Z,96.92
2022-11-27T09:17:25.431Z,96.69
2022-11-27T09:20:03.639Z,96.21
2022-11-27T09:22:33.816Z,95.35
2022-11-27T09:25:03.422Z,95.63
2022-11-27T09:27:34.791Z,96.27
2022-11-27T09:30:07.224Z,96.03
2022-11-27T09:32:34.646Z,94.37
2022-11-27T09:35:19.556Z,94.07
2022-11-27T09:38:17.842Z,93.43
2022-11-27T09:40:50.031Z,93.28
2022-11-27T09:43:37.284Z,93.46
2022-11-27T09:46:26.115Z,93.41
2022-11-27T09:49:02.926Z,93.41
2022-11-27T09:52:14.390Z,93.26
2022-11-27T09:54:55.004Z,92.58
2022-11-27T09:57:32.417Z,92.20
2022-11-27T10:00:10.940Z,91.87
2022-11-27T10:02:37.862Z,91.61
2022-11-27T10:05:54.196Z,91.55
2022-11-27T10:08:47.621Z,90.21
2022-11-27T10:11:32.201Z,88.45
2022-11-27T10:14:30.859Z,88.78
2022-11-27T10:17:13.495Z,89.51
2022-11-27T10:20:12.704Z,89.57
2022-11-27T10:22:53.944Z,89.47
2022-11-27T10:25:31.253Z,88.68
2022-11-27T10:28:12.652Z,87.14
2022-11-27T10:30:55.306Z,87.04
2022-11-27T10:33:37.273Z,84.94
2022-11-27T10:36:11.341Z,85.54
2022-11-27T10:38:48.103Z,85.47
2022-11-27T10:44:37.344Z,85.12
2022-11-27T10:47:22.579Z,84.87
2022-11-27T10:49:49.662Z,85.14
2022-11-27T10:52:52.390Z,84.97
2022-11-27T10:55:41.960Z,83.23
2022-11-27T10:58:21.887Z,81.81
2022-11-27T11:01:08.479Z,82.45
2022-11-27T11:03:40.837Z,82.09
2022-11-27T11:06:36.461Z,80.95
2022-11-27T11:09:16.647Z,80.31
2022-11-27T11:11:47.529Z,80.58
2022-11-27T11:14:26.403Z,79.66
2022-11-27T11:16:56.867Z,80.61
2022-11-27T11:19:47.544Z,81.10
2022-11-27T11:22:25.777Z,81.05
2022-11-27T11:24:59.450Z,80.51
2022-11-27T11:27:31.749Z,79.40
2022-11-27T11:30:02.763Z,80.16
2022-11-27T11:32:42.644Z,80.05
2022-11-27T11:38:54.712Z,79.28
2022-11-27T11:41:39.082Z,80.12
2022-11-27T11:44:36.239Z,80.57
2022-11-27T11:47:03.293Z,79.56
2022-11-27T11:49:35.642Z,79.92
2022-11-27T11:52:21.247Z,79.47
2022-11-27T11:54:57.827Z,79.77
2022-11-27T11:58:02.859Z,77.03
2022-11-27T12:04:07.546Z,77.74
2022-11-27T12:07:09.447Z,76.83
2022-11-27T12:09:54.945Z,77.80
2022-11-27T12:12:44.295Z,78.47
2022-11-27T12:15:22.966Z,79.16
2022-11-27T12:17:53.878Z,78.88
2022-11-27T12:20:24.934Z,79.24
2022-11-27T12:23:15.861Z,78.82
2022-11-27T12:26:12.665Z,78.79
2022-11-27T12:29:16.690Z,79.19
2022-11-27T12:32:22.223Z,79.17
2022-11-27T12:35:07.485Z,78.73
2022-11-27T12:37:53.524Z,79.29
2022-11-27T12:40:47.518Z,79.81
2022-11-27T12:43:24.234Z,80.42
2022-11-27T12:45:56.968Z,80.65
2022-11-27T12:48:46.016Z,80.74
2022-11-27T12:51:21.229Z,81.11
2022-11-27T12:54:11.121Z,81.53
2022-11-27T12:56:48.671Z,81.73
2022-11-27T12:59:21.891Z,82.03
2022-11-27T13:01:59.128Z,82.68
2022-11-27T13:04:34.356Z,83.15
2022-11-27T13:07:27.804Z,83.44
2022-11-27T13:10:22.495Z,83.95
2022-11-27T13:13:01.526Z,84.14
2022-11-27T13:15:55.609Z,84.10
2022-11-27T13:18:45.891Z,84.29
2022-11-27T13:21:17.965Z,84.76
2022-11-27T13:23:44.674Z,85.05
2022-11-27T13:26:20.757Z,86.05
2022-11-27T13:28:56.471Z,86.80
2022-11-27T13:31:30.564Z,87.18
2022-11-27T13:34:06.539Z,87.40
2022-11-27T13:36:44.289Z,87.63
2022-11-27T13:39:27.296Z,87.82
2022-11-27T13:42:09.626Z,88.31
2022-11-27T13:44:41.330Z,88.93
2022-11-27T13:47:19.403Z,89.32
2022-11-27T13:50:03.642Z,89.90
2022-11-27T13:52:34.735Z,90.40
2022-11-27T13:55:05.764Z,90.48
2022-11-27T13:57:33.842Z,90.64
2022-11-27T14:00:10.556Z,91.02
2022-11-27T14:02:49.012Z,91.46
2022-11-27T14:05:20.237Z,91.97
2022-11-27T14:07:49.975Z,91.89
2022-11-27T14:10:26.673Z,92.15
2022-11-27T14:13:01.074Z,92.64
2022-11-27T14:15:29.178Z,93.19
2022-11-27T14:18:20.441Z,93.42
2022-11-27T14:21:00.820Z,93.32
2022-11-27T14:23:34.924Z,93.52
2022-11-27T14:26:15.436Z,93.84
2022-11-27T14:28:45.649Z,93.98
2022-11-27T14:31:27.872Z,94.94
2022-11-27T14:34:24.978Z,94.84
2022-11-27T14:36:41.555Z,95.12
2022-11-27T14:39:21.123Z,95.44
2022-11-27T14:41:56.523Z,95.96
2022-11-27T14:44:23.089Z,95.91
2022-11-27T14:46:51.477Z,96.66
2022-11-27T14:49:20.257Z,97.00
2022-11-27T14:51:48.192Z,97.41
2022-11-27T14:54:37.803Z,97.74
2022-11-27T14:57:06.240Z,97.77
2022-11-27T14:59:32.875Z,97.72
2022-11-27T15:02:13.963Z,97.83
2022-11-27T15:04:42.746Z,97.91
2022-11-27T15:07:22.776Z,97.86
2022-11-27T15:09:55.264Z,97.99
2022-11-27T15:12:27.374Z,98.05
2022-11-27T15:15:02.139Z,98.06
2022-11-27T15:17:31.444Z,97.90
2022-11-27T15:19:59.717Z,98.00
2022-11-27T15:22:28.823Z,98.14
2022-11-27T15:25:03.561Z,98.24
2022-11-27T15:27:32.876Z,98.30
2022-11-27T15:30:13.232Z,98.36
2022-11-27T15:32:53.004Z,98.44
2022-11-27T15:35:29.403Z,98.35
2022-11-27T15:38:07.799Z,98.68
2022-11-27T15:40:39.669Z,98.46
2022-11-27T15:43:15.692Z,98.45
2022-11-27T15:45:43.939Z,98.47
2022-11-27T15:48:15.874Z,98.57
2022-11-27T15:50:46.807Z,98.46
2022-11-27T15:53:19.457Z,98.52
2022-11-27T15:55:46.227Z,98.42
2022-11-27T15:58:13.146Z,98.25
2022-11-27T16:00:40.120Z,98.17
2022-11-27T16:03:06.825Z,98.12
2022-11-27T16:05:33.416Z,98.22
2022-11-27T16:08:00.172Z,98.38
2022-11-27T16:10:26.902Z,98.10
2022-11-27T16:12:54.530Z,98.21
2022-11-27T16:15:23.254Z,98.31
2022-11-27T16:17:51.456Z,98.40
2022-11-27T16:20:20.599Z,98.39
2022-11-27T16:23:20.006Z,98.33
2022-11-27T16:25:42.360Z,98.54
2022-11-27T16:28:12.259Z,98.75
2022-11-27T16:30:39.111Z,98.69
2022-11-27T16:33:08.615Z,98.74
2022-11-27T16:35:36.083Z,98.95
2022-11-27T16:38:02.861Z,99.07
2022-11-27T16:40:29.621Z,99.27
2022-11-27T16:42:56.397Z,98.90
2022-11-27T16:45:23.257Z,99.29
2022-11-27T16:47:50.134Z,99.27
2022-11-27T16:50:17.600Z,99.30
2022-11-27T16:52:44.727Z,99.40
2022-11-27T16:55:12.540Z,99.30
2022-11-27T16:57:41.964Z,99.42
2022-11-27T17:00:08.880Z,99.49
2022-11-27T17:02:35.725Z,99.42
2022-11-27T17:05:02.794Z,99.42
2022-11-27T17:07:29.575Z,99.56
2022-11-27T17:10:29.867Z,99.46
2022-11-27T17:12:59.626Z,99.15
2022-11-27T17:15:39.152Z,99.24
2022-11-27T17:18:09.499Z,99.45
2022-11-27T17:20:46.160Z,99.41
2022-11-27T17:23:15.012Z,99.28
2022-11-27T17:25:42.903Z,99.12
2022-11-27T17:28:09.722Z,99.20
2022-11-27T17:30:39.603Z,99.19
2022-11-27T17:33:06.540Z,99.06
2022-11-27T17:35:33.461Z,98.80
2022-11-27T17:38:03.003Z,98.90
2022-11-27T17:40:33.078Z,98.94
2022-11-27T17:42:59.947Z,98.96
2022-11-27T17:45:26.821Z,98.76
2022-11-27T17:47:53.774Z,98.80
2022-11-27T17:50:21.932Z,98.73
2022-11-27T17:52:52.130Z,98.81
2022-11-27T17:55:21.122Z,99.00
2022-11-27T17:57:47.947Z,99.05
2022-11-27T18:00:16.344Z,98.99
2022-11-27T18:02:45.299Z,98.86
2022-11-27T18:05:20.280Z,98.86
2022-11-27T18:07:50.240Z,98.91
2022-11-27T18:10:17.938Z,99.14
2022-11-27T18:12:44.794Z,99.19
2022-11-27T18:15:17.367Z,99.44
2022-11-27T18:17:48.554Z,99.50
2022-11-27T18:20:20.745Z,99.69
2022-11-27T18:22:47.622Z,99.67
2022-11-27T18:25:23.692Z,99.63
2022-11-27T18:27:50.423Z,99.69
2022-11-27T18:30:17.568Z,99.58
2022-11-27T18:32:47.306Z,99.66
2022-11-27T18:35:14.023Z,99.73
2022-11-27T18:37:40.994Z,99.62
2022-11-27T18:40:09.475Z,99.67
2022-11-27T18:42:36.291Z,99.53
2022-11-27T18:45:05.932Z,99.21
2022-11-27T18:47:33.282Z,99.36
2022-11-27T18:50:02.757Z,99.31
2022-11-27T18:52:36.420Z,99.22
2022-11-27T18:55:04.182Z,99.14
2022-11-27T18:57:34.349Z,99.26
2022-11-27T19:00:01.297Z,99.21
2022-11-27T19:02:29.023Z,99.21
2022-11-27T19:04:56.020Z,99.11
2022-11-27T19:07:24.534Z,98.89
2022-11-27T19:09:55.562Z,98.77
2022-11-27T19:12:22.468Z,98.69
2022-11-27T19:14:50.862Z,98.79
2022-11-27T19:17:21.168Z,98.86
2022-11-27T19:19:55.354Z,98.99
2022-11-27T19:22:23.108Z,98.60
2022-11-27T19:24:52.291Z,98.39
2022-11-27T19:27:25.725Z,98.44
2022-11-27T19:29:57.373Z,98.61
2022-11-27T19:32:44.456Z,99.02
2022-11-27T19:35:24.507Z,99.11
2022-11-27T19:37:55.014Z,99.33
2022-11-27T19:40:21.950Z,99.15
2022-11-27T19:42:56.751Z,99.49
2022-11-27T19:45:27.893Z,99.39
2022-11-27T19:47:55.187Z,99.59
2022-11-27T19:50:28.548Z,99.47
2022-11-27T19:53:04.010Z,99.43
2022-11-27T19:55:36.403Z,99.12
2022-11-27T19:58:03.359Z,99.17
2022-11-27T20:00:30.528Z,99.13
2022-11-27T20:02:57.440Z,99.63
2022-11-27T20:05:26.038Z,99.62
2022-11-27T20:07:52.976Z,99.76
2022-11-27T20:10:22.070Z,99.83
2022-11-27T20:12:51.374Z,99.83
2022-11-27T20:15:21.610Z,99.76
2022-11-27T20:17:48.654Z,99.81
2022-11-27T20:20:23.266Z,99.91
2022-11-27T20:22:53.622Z,99.85
2022-11-27T20:25:21.523Z,99.94
2022-11-27T20:27:51.199Z,100.00
2022-11-27T20:30:20.441Z,100.00
2022-11-27T20:33:00.886Z,100.00
2022-11-27T20:35:41.166Z,99.95
2022-11-27T20:38:10.252Z,99.92
2022-11-27T20:40:40.046Z,99.95
2022-11-27T20:43:09.895Z,99.99
2022-11-27T20:45:41.310Z,99.90
2022-11-27T20:48:35.809Z,99.77
2022-11-27T20:51:15.263Z,99.77
2022-11-27T20:54:06.021Z,99.50
2022-11-27T20:56:51.608Z,99.52
2022-11-27T21:00:06.464Z,99.84
2022-11-27T21:03:02.034Z,99.59
2022-11-27T21:06:06.354Z,99.88
2022-11-27T21:09:26.428Z,99.93
2022-11-27T21:13:49.609Z,99.71
2022-11-27T21:18:37.042Z,99.97
2022-11-27T21:21:34.770Z,99.86
2022-11-27T21:21:53.109Z,99.85
2022-11-27T21:27:53.241Z,99.92
2022-11-27T21:30:39.228Z,99.81
2022-11-27T21:33:24.818Z,99.90
2022-11-27T21:35:58.138Z,99.96
2022-11-27T21:41:43.970Z,99.95
2022-11-27T21:44:45.333Z,99.98
2022-11-27T21:48:27.938Z,100.00
2022-11-27T21:51:08.263Z,100.00
2022-11-27T21:51:40.765Z,99.98
2022-11-27T21:54:35.180Z,100.00
2022-11-27T21:57:18.802Z,100.00
2022-11-27T22:01:04.230Z,100.00
2022-11-27T22:03:58.834Z,100.00
2022-11-27T22:16:36.681Z,100.00
2022-11-27T22:21:58.202Z,100.00
2022-11-27T22:25:20.073Z,100.00
2022-11-27T22:27:47.228Z,100.00
2022-11-27T22:28:31.951Z,100.00
2022-11-27T22:31:49.119Z,100.00
2022-11-27T22:38:03.938Z,100.00
2022-11-27T22:38:47.599Z,100.00
2022-11-27T22:41:42.467Z,100.00
2022-11-27T22:44:29.471Z,100.00
2022-11-27T22:47:14.161Z,100.00
2022-11-27T22:50:47.219Z,100.00
2022-11-27T22:54:01.702Z,100.00
2022-11-27T22:56:44.217Z,100.00
2022-11-27T23:00:04.193Z,100.00
2022-11-27T23:03:23.238Z,100.00
2022-11-27T23:06:26.963Z,100.00
2022-11-27T23:09:25.530Z,100.00
2022-11-27T23:12:12.994Z,100.00
2022-11-27T23:15:21.581Z,100.00
2022-11-27T23:22:02.012Z,100.00
2022-11-27T23:25:13.831Z,100.00
2022-11-27T23:30:48.512Z,100.00
2022-11-27T23:37:34.700Z,100.00
2022-11-27T23:37:56.675Z,100.00
2022-11-27T23:41:03.527Z,100.00
2022-11-27T23:50:44.665Z,100.00
2022-11-27T23:52:36.884Z,100.00
2022-11-27T23:53:51.227Z,100.00
2022-11-27T23:54:28.399Z,100.00
2022-11-27T23:56:56.533Z,100.00
